Flight Track Log - Related Links

Times and Time Zones

All times are in EDT time to prevent confusion due to time zone crossing. See the JBU19 flight status page for this flight to view local times or setup timezone preferences in your user account.

Time Position Orientation Groundspeed Altitude Reporting Facility
EDT Latitude Longitude Course Direction KTS MPH feet Rate Location/Type
Sun 06:05:59 AM 44.4406 -73.1292 193° South 169 194 1,900  Level Boston Center
Sun 06:06:59 AM 44.3842 -73.1458 192° South 181 208 4,100 2,700 Climbing Boston Center
Sun 06:07:59 AM 44.3111 -73.1742 196° South 249 287 7,300 3,450 Climbing Boston Center
Sun 06:08:00 AM 44.1567 -73.2663 195° South  Level FlightAware Approximate
Sun 06:08:59 AM 44.2400 -73.2050 197° South 274 315 11,000  Level Boston Center
Sun 06:09:00 AM 44.0787 -73.2955 195° South  Level FlightAware Approximate
Sun 06:09:59 AM 44.1522 -73.2417 197° South 308 354 12,900  Level Boston Center
Sun 06:10:00 AM 44.0003 -73.3222 194° South  Level FlightAware Approximate
Sun 06:10:59 AM 44.0644 -73.2781 197° South 335 386 16,300  Level Boston Center
Sun 06:11:00 AM 43.9217 -73.3483 193° South  Level FlightAware Approximate
Sun 06:11:59 AM 43.9725 -73.3169 197° South 342 394 18,500  Level Boston Center
Sun 06:12:59 AM 43.8806 -73.3531 196° South 347 399 20,600 2,200 Climbing Boston Center
Sun 06:13:59 AM 43.7803 -73.3947 197° South 357 411 22,900 1,950 Climbing Boston Center
Sun 06:14:59 AM 43.6797 -73.4361 197° South 365 420 24,500 1,600 Climbing Boston Center
Sun 06:15:59 AM 43.5878 -73.4661 193° South 376 433 26,100 1,650 Climbing Boston Center
Sun 06:16:59 AM 43.4833 -73.5103 197° South 387 445 27,800 950 Climbing Boston Center
Sun 06:17:59 AM 43.3786 -73.5511 196° South 387 445 28,000 100 Climbing Boston Center
Sun 06:18:59 AM 43.2719 -73.5950 197° South 392 451 28,000  Level Boston Center
Sun 06:19:59 AM 43.1672 -73.6386 197° South 398 458 28,000  Level Boston Center
Sun 06:20:59 AM 43.0500 -73.6844 196° South 403 464 28,000  Level Boston Center
Sun 06:21:59 AM 42.9411 -73.7278 196° South 403 464 28,000  Level Boston Center
Sun 06:22:59 AM 42.8344 -73.7708 196° South 403 464 28,000  Level Boston Center
Sun 06:23:59 AM 42.7256 -73.8053 193° South 403 464 28,000  Level Boston Center
Sun 06:24:59 AM 42.6089 -73.8111 182° South 403 464 28,000  Level Boston Center
Sun 06:25:59 AM 42.4964 -73.8142 181° South 409 471 28,000  Level Boston Center
Sun 06:26:59 AM 42.3942 -73.8147 180° South 416 479 28,000  Level Boston Center
Sun 06:27:59 AM 42.2878 -73.8153 180° South 405 466 28,000  Level Boston Center
Sun 06:28:59 AM 42.1775 -73.8183 181° South 400 460 28,000  Level Boston Center
Sun 06:29:59 AM 42.0689 -73.8189 180° South 394 453 28,000 -377 Level Boston Center
Sun 06:31:54 AM 41.8561 -73.8678 190° South 418 481 26,900 -881 Descending New York Center
Sun 06:32:56 AM 41.7572 -73.9078 197° South 395 455 25,400 -1,550 Descending New York Center
Sun 06:33:54 AM 41.6561 -73.9528 198° South 390 449 23,800 -1,462 Descending New York Center
Sun 06:34:55 AM 41.5656 -73.9900 197° South 380 437 22,500 -1,412 Descending New York Center
Sun 06:35:53 AM 41.4664 -74.0297 197° South 380 437 21,000 -1,271 Descending New York Center
Sun 06:36:53 AM 41.3736 -74.0775 201° Southwest 370 426 20,000 -492 Descending New York Center
Sun 06:37:55 AM 41.2881 -74.1508 213° Southwest 358 412 20,000 -293 Level New York Center
Sun 06:38:56 AM 41.1917 -74.1733 190° South 358 412 19,400 -508 Descending New York Center
Sun 06:39:53 AM 41.0672 -74.1561 174° South 371 427 19,000 -205 Descending New York Center
Sun 06:40:53 AM 40.9614 -74.1425 174° South 378 435 19,000 -135 Level New York Center
Sun 06:41:22 AM 40.9167 -74.1167 156° South 360 414 18,800 -1,012 Descending New York TRACON
Sun 06:42:16 AM 40.8333 -74.0833 163° South 339 390 17,600 -1,500 Descending New York TRACON
Sun 06:43:10 AM 40.7500 -74.0333 156° South 328 377 16,100 -1,737 Descending New York TRACON
Sun 06:44:10 AM 40.6667 -74.0000 163° South 324 373 14,300 -1,632 Descending New York TRACON
Sun 06:45:04 AM 40.6000 -73.9667 159° South 324 373 13,000 -1,053 Descending New York TRACON
Sun 06:46:04 AM 40.5167 -73.9333 163° South 309 356 12,300 -1,000 Descending New York TRACON
Sun 06:46:58 AM 40.4500 -73.9000 159° South 302 348 11,100 -1,389 Descending New York TRACON
Sun 06:47:52 AM 40.3833 -73.8333 143° Southeast 296 341 9,800 -1,632 Descending New York TRACON
Sun 06:48:52 AM 40.3333 -73.7500 128° Southeast 306 352 8,000 -1,750 Descending New York TRACON
Sun 06:49:52 AM 40.2833 -73.6667 128° Southeast 302 348 6,300 -1,579 Descending New York TRACON
Sun 06:50:46 AM 40.3167 -73.5833 62° Northeast 295 339 5,000 -842 Descending New York TRACON
Sun 06:51:46 AM 40.3667 -73.5333 37° Northeast 235 270 4,700 -632 Descending New York TRACON
Sun 06:52:40 AM 40.4167 -73.4833 37° Northeast 230 265 3,800 -789 Descending New York TRACON
Sun 06:53:40 AM 40.4667 -73.4667 14° North 192 221 3,200 -400 Descending New York TRACON
Sun 06:54:40 AM 40.5167 -73.4667 360° North 172 198 3,000 -100 Descending New York TRACON
Sun 06:55:40 AM 40.5333 -73.5333 288° West 163 188 3,000  Level New York TRACON
Sun 06:56:34 AM 40.5667 -73.5667 323° Northwest 164 189 3,000 -316 Level New York TRACON
Sun 06:57:34 AM 40.5833 -73.6167 294° West 165 190 2,400 -684 Descending New York TRACON
Sun 06:58:28 AM 40.6000 -73.6667 294° West 159 183 1,700 -737 Descending New York TRACON
Sun 06:59:28 AM 40.6167 -73.7000 303° West 127 146 1,000 -700 Descending New York TRACON
Sun 07:00:28 AM 40.6333 -73.7500 294° West 129 148 300 -700 Descending New York TRACON

Login

Don't have an account? Register now (free) for customized features, flight alerts, and more!